createdAt,value
2023-05-21T00:00:21.795Z,19.65
2023-05-21T00:02:48.397Z,19.65
2023-05-21T00:05:17.107Z,19.66
2023-05-21T00:07:44.453Z,19.67
2023-05-21T00:10:11.388Z,19.66
2023-05-21T00:12:37.855Z,19.67
2023-05-21T00:15:04.874Z,19.66
2023-05-21T00:17:31.363Z,19.64
2023-05-21T00:19:57.875Z,19.65
2023-05-21T00:22:24.440Z,19.65
2023-05-21T00:24:51.111Z,19.64
2023-05-21T00:27:17.865Z,19.65
2023-05-21T00:29:44.553Z,19.65
2023-05-21T00:32:11.203Z,19.65
2023-05-21T00:34:38.335Z,19.63
2023-05-21T00:37:05.099Z,19.65
2023-05-21T00:39:31.641Z,19.65
2023-05-21T00:41:58.425Z,19.64
2023-05-21T00:44:25.577Z,19.63
2023-05-21T00:46:53.907Z,19.65
2023-05-21T00:49:24.560Z,19.64
2023-05-21T00:51:51.967Z,19.65
2023-05-21T00:54:18.916Z,19.65
2023-05-21T00:56:46.710Z,19.65
2023-05-21T00:59:15.913Z,19.65
2023-05-21T01:01:45.904Z,19.66
2023-05-21T01:04:13.218Z,19.65
2023-05-21T01:06:39.704Z,19.65
2023-05-21T01:09:07.240Z,19.67
2023-05-21T01:11:55.520Z,19.64
2023-05-21T01:14:24.092Z,19.64
2023-05-21T01:16:52.276Z,19.65
2023-05-21T01:19:22.557Z,19.64
2023-05-21T01:22:00.397Z,19.64
2023-05-21T01:24:26.930Z,19.64
2023-05-21T01:26:53.407Z,19.64
2023-05-21T01:29:19.874Z,19.62
2023-05-21T01:32:04.345Z,19.63
2023-05-21T01:34:37.716Z,19.63
2023-05-21T01:37:36.721Z,19.64
2023-05-21T01:40:17.431Z,19.62
2023-05-21T01:42:45.574Z,19.63
2023-05-21T01:45:13.834Z,19.63
2023-05-21T01:47:41.923Z,19.62
2023-05-21T01:50:09.529Z,19.62
2023-05-21T01:52:36.140Z,19.61
2023-05-21T01:55:02.600Z,19.60
2023-05-21T01:57:29.085Z,19.61
2023-05-21T01:59:57.766Z,19.62
2023-05-21T02:02:24.301Z,19.62
2023-05-21T02:04:51.560Z,19.62
2023-05-21T02:07:18.411Z,19.62
2023-05-21T02:09:45.103Z,19.62
2023-05-21T02:12:11.659Z,19.62
2023-05-21T02:14:38.531Z,19.62
2023-05-21T02:17:05.216Z,19.62
2023-05-21T02:19:31.736Z,19.62
2023-05-21T02:21:58.200Z,19.61
2023-05-21T02:24:24.952Z,19.61
2023-05-21T02:26:52.359Z,19.60
2023-05-21T02:29:19.216Z,19.60
2023-05-21T02:31:45.843Z,19.60
2023-05-21T02:34:12.349Z,19.58
2023-05-21T02:36:41.509Z,19.59
2023-05-21T02:39:07.963Z,19.59
2023-05-21T02:41:34.570Z,19.61
2023-05-21T02:44:01.113Z,19.58
2023-05-21T02:46:27.635Z,19.57
2023-05-21T02:48:54.192Z,19.57
2023-05-21T02:51:20.704Z,19.58
2023-05-21T02:53:47.187Z,19.58
2023-05-21T02:56:13.718Z,19.58
2023-05-21T02:58:40.166Z,19.58
2023-05-21T03:01:06.674Z,19.59
2023-05-21T03:03:33.242Z,19.57
2023-05-21T03:05:59.743Z,19.57
2023-05-21T03:08:26.672Z,19.57
2023-05-21T03:10:53.232Z,19.57
2023-05-21T03:13:19.805Z,19.58
2023-05-21T03:15:46.709Z,19.59
2023-05-21T03:18:13.277Z,19.58
2023-05-21T03:20:44.467Z,19.60
2023-05-21T03:23:15.717Z,19.58
2023-05-21T03:25:43.378Z,19.58
2023-05-21T03:28:12.385Z,19.59
2023-05-21T03:30:38.818Z,19.58
2023-05-21T03:33:06.484Z,19.58
2023-05-21T03:35:33.123Z,19.57
2023-05-21T03:37:59.629Z,19.56
2023-05-21T03:40:26.137Z,19.55
2023-05-21T03:42:52.572Z,19.56
2023-05-21T03:45:19.035Z,19.57
2023-05-21T03:47:45.517Z,19.57
2023-05-21T03:50:12.453Z,19.56
2023-05-21T03:52:38.934Z,19.55
2023-05-21T03:55:06.203Z,19.56
2023-05-21T03:57:32.835Z,19.56
2023-05-21T03:59:59.345Z,19.56
2023-05-21T04:02:27.297Z,19.55
2023-05-21T04:04:55.897Z,19.55
2023-05-21T04:07:22.734Z,19.54
2023-05-21T04:09:49.355Z,19.55
2023-05-21T04:12:17.974Z,19.56
2023-05-21T04:14:44.471Z,19.57
2023-05-21T04:17:12.709Z,19.56
2023-05-21T04:19:39.489Z,19.54
2023-05-21T04:22:06.036Z,19.54
2023-05-21T04:24:32.473Z,19.55
2023-05-21T04:27:01.569Z,19.56
2023-05-21T04:29:29.895Z,19.54
2023-05-21T04:31:56.357Z,19.55
2023-05-21T04:34:22.845Z,19.56
2023-05-21T04:36:49.854Z,19.55
2023-05-21T04:39:17.089Z,19.53
2023-05-21T04:41:44.298Z,19.53
2023-05-21T04:44:11.208Z,19.53
2023-05-21T04:46:39.650Z,19.52
2023-05-21T04:49:08.063Z,19.52
2023-05-21T04:51:37.825Z,19.52
2023-05-21T04:54:04.429Z,19.53
2023-05-21T04:56:31.988Z,19.52
2023-05-21T04:58:58.958Z,19.53
2023-05-21T05:01:27.323Z,19.54
2023-05-21T05:03:54.094Z,19.53
2023-05-21T05:06:21.465Z,19.53
2023-05-21T05:08:48.059Z,19.51
2023-05-21T05:11:14.566Z,19.51
2023-05-21T05:13:44.120Z,19.53
2023-05-21T05:16:11.328Z,19.52
2023-05-21T05:18:37.845Z,19.51
2023-05-21T05:21:04.338Z,19.52
2023-05-21T05:23:30.931Z,19.50
2023-05-21T05:25:57.391Z,19.53
2023-05-21T05:28:23.893Z,19.51
2023-05-21T05:30:50.399Z,19.50
2023-05-21T05:33:17.005Z,19.50
2023-05-21T05:35:43.543Z,19.52
2023-05-21T05:38:10.531Z,19.54
2023-05-21T05:40:36.989Z,19.53
2023-05-21T05:43:03.608Z,19.57
2023-05-21T05:45:30.066Z,19.66
2023-05-21T05:47:56.566Z,19.71
2023-05-21T05:50:23.200Z,19.78
2023-05-21T05:52:49.683Z,19.85
2023-05-21T05:55:16.294Z,19.91
2023-05-21T05:57:44.441Z,19.98
2023-05-21T06:00:12.306Z,20.01
2023-05-21T06:02:38.918Z,20.04
2023-05-21T06:05:06.976Z,20.06
2023-05-21T06:07:33.597Z,20.06
2023-05-21T06:10:00.059Z,20.07
2023-05-21T06:12:26.597Z,20.04
2023-05-21T06:14:53.033Z,20.04
2023-05-21T06:17:19.491Z,20.03
2023-05-21T06:19:46.112Z,20.01
2023-05-21T06:22:12.581Z,20.01
2023-05-21T06:24:39.021Z,19.98
2023-05-21T06:27:05.714Z,19.96
2023-05-21T06:29:32.168Z,19.98
2023-05-21T06:31:58.876Z,19.97
2023-05-21T06:34:25.729Z,19.97
2023-05-21T06:36:52.202Z,19.94
2023-05-21T06:39:18.971Z,19.96
2023-05-21T06:41:45.530Z,19.96
2023-05-21T06:44:12.143Z,19.94
2023-05-21T06:46:38.791Z,19.91
2023-05-21T06:49:07.090Z,19.91
2023-05-21T06:51:33.917Z,19.90
2023-05-21T06:54:00.457Z,19.87
2023-05-21T06:56:27.012Z,19.90
2023-05-21T06:58:54.492Z,19.92
2023-05-21T07:01:22.490Z,19.89
2023-05-21T07:03:49.528Z,19.89
2023-05-21T07:06:16.915Z,19.92
2023-05-21T07:08:43.519Z,19.90
2023-05-21T07:11:10.062Z,19.89
2023-05-21T07:13:36.884Z,19.87
2023-05-21T07:16:03.397Z,19.86
2023-05-21T07:18:29.929Z,19.86
2023-05-21T07:20:57.158Z,19.86
2023-05-21T07:23:23.913Z,19.88
2023-05-21T07:25:50.705Z,19.85
2023-05-21T07:28:17.584Z,19.83
2023-05-21T07:30:44.109Z,19.81
2023-05-21T07:33:10.805Z,19.83
2023-05-21T07:35:37.785Z,19.83
2023-05-21T07:38:04.805Z,19.86
2023-05-21T07:40:31.316Z,19.83
2023-05-21T07:42:57.813Z,19.84
2023-05-21T07:45:24.611Z,19.85
2023-05-21T07:47:51.192Z,19.86
2023-05-21T07:50:17.972Z,19.84
2023-05-21T07:52:44.541Z,19.86
2023-05-21T07:55:11.199Z,19.84
2023-05-21T07:57:38.006Z,19.85
2023-05-21T08:00:08.330Z,19.85
2023-05-21T08:02:35.138Z,19.85
2023-05-21T08:05:01.932Z,19.87
2023-05-21T08:07:28.748Z,19.84
2023-05-21T08:09:55.290Z,19.86
2023-05-21T08:12:21.756Z,19.85
2023-05-21T08:14:48.294Z,19.85
2023-05-21T08:17:15.009Z,19.86
2023-05-21T08:19:42.080Z,19.85
2023-05-21T08:22:08.600Z,19.83
2023-05-21T08:24:35.284Z,19.85
2023-05-21T08:27:01.807Z,19.85
2023-05-21T08:29:28.296Z,19.86
2023-05-21T08:31:54.809Z,19.84
2023-05-21T08:34:21.349Z,19.83
2023-05-21T08:36:50.025Z,19.82
2023-05-21T08:39:16.775Z,19.84
2023-05-21T08:41:49.615Z,19.87
2023-05-21T08:44:21.621Z,19.82
2023-05-21T08:46:50.903Z,19.85
2023-05-21T08:49:27.296Z,19.86
2023-05-21T08:51:55.325Z,19.88
2023-05-21T08:54:22.961Z,19.86
2023-05-21T08:56:49.918Z,19.86
2023-05-21T08:59:17.726Z,19.88
2023-05-21T09:01:46.160Z,19.86
2023-05-21T09:04:21.253Z,19.87
2023-05-21T09:06:48.566Z,19.83
2023-05-21T09:09:25.132Z,19.88
2023-05-21T09:11:51.676Z,19.89
2023-05-21T09:14:19.366Z,19.90
2023-05-21T09:16:48.489Z,19.90
2023-05-21T09:19:15.114Z,19.93
2023-05-21T09:21:41.868Z,19.92
2023-05-21T09:24:09.700Z,19.95
2023-05-21T09:26:36.308Z,19.95
2023-05-21T09:29:02.806Z,19.95
2023-05-21T09:31:29.682Z,19.96
2023-05-21T09:33:56.260Z,19.98
2023-05-21T09:36:22.843Z,19.99
2023-05-21T09:38:51.953Z,19.98
2023-05-21T09:41:21.793Z,20.04
2023-05-21T09:43:48.993Z,19.99
2023-05-21T09:46:15.566Z,19.99
2023-05-21T09:48:43.238Z,19.99
2023-05-21T09:51:17.087Z,20.00
2023-05-21T09:54:00.086Z,19.98
2023-05-21T09:56:29.552Z,19.99
2023-05-21T09:58:57.794Z,20.01
2023-05-21T10:01:25.295Z,20.01
2023-05-21T10:03:57.234Z,19.99
2023-05-21T10:06:32.292Z,19.99
2023-05-21T10:09:03.964Z,20.02
2023-05-21T10:11:32.526Z,20.06
2023-05-21T10:14:07.350Z,20.05
2023-05-21T10:16:35.920Z,20.00
2023-05-21T10:19:03.169Z,20.00
2023-05-21T10:21:31.148Z,20.00
2023-05-21T10:23:57.894Z,20.02
2023-05-21T10:26:24.985Z,20.02
2023-05-21T10:28:52.237Z,20.01
2023-05-21T10:31:19.834Z,20.00
2023-05-21T10:33:46.465Z,20.01
2023-05-21T10:36:18.784Z,20.02
2023-05-21T10:38:45.965Z,20.01
2023-05-21T10:41:15.021Z,20.04
2023-05-21T10:44:20.539Z,20.02
2023-05-21T10:46:59.219Z,20.04
2023-05-21T10:50:09.413Z,20.04
2023-05-21T10:52:41.884Z,20.04
2023-05-21T10:55:27.706Z,20.03
2023-05-21T10:58:10.965Z,20.02
2023-05-21T11:00:38.412Z,20.04
2023-05-21T11:03:06.498Z,20.05
2023-05-21T11:05:52.553Z,20.04
2023-05-21T11:08:34.588Z,20.05
2023-05-21T11:11:02.286Z,20.05
2023-05-21T11:13:44.857Z,20.04
2023-05-21T11:16:15.758Z,20.05
2023-05-21T11:18:42.214Z,20.04
2023-05-21T11:21:17.030Z,20.04
2023-05-21T11:23:53.977Z,20.05
2023-05-21T11:26:22.678Z,20.05
2023-05-21T11:29:04.387Z,20.05
2023-05-21T11:31:38.734Z,20.05
2023-05-21T11:34:08.706Z,20.05
2023-05-21T11:36:37.990Z,20.05
2023-05-21T11:39:15.817Z,20.05
2023-05-21T11:41:52.068Z,20.04
2023-05-21T11:44:18.617Z,20.05
2023-05-21T11:46:46.474Z,20.04
2023-05-21T11:49:13.357Z,20.05
2023-05-21T11:51:40.641Z,20.06
2023-05-21T11:54:10.105Z,20.06
2023-05-21T11:56:37.055Z,20.05
2023-05-21T11:59:03.567Z,20.06
2023-05-21T12:01:31.222Z,20.07
2023-05-21T12:03:57.875Z,20.06
2023-05-21T12:06:27.807Z,20.06
2023-05-21T12:08:58.196Z,20.04
2023-05-21T12:11:24.975Z,20.06
2023-05-21T12:13:51.550Z,20.11
2023-05-21T12:16:18.278Z,20.17
2023-05-21T12:18:44.978Z,20.25
2023-05-21T12:21:12.600Z,20.32
2023-05-21T12:23:39.198Z,20.40
2023-05-21T12:26:05.951Z,20.49
2023-05-21T12:28:32.628Z,20.57
2023-05-21T12:30:59.086Z,20.66
2023-05-21T12:33:26.066Z,20.72
2023-05-21T12:35:52.757Z,20.80
2023-05-21T12:38:19.414Z,20.88
2023-05-21T12:40:46.072Z,20.91
2023-05-21T12:43:12.745Z,20.92
2023-05-21T12:45:39.815Z,20.94
2023-05-21T12:48:06.550Z,20.93
2023-05-21T12:50:33.173Z,20.91
2023-05-21T12:52:59.735Z,20.90
2023-05-21T12:55:26.374Z,20.85
2023-05-21T12:58:08.878Z,20.81
2023-05-21T13:00:36.471Z,20.85
2023-05-21T13:03:04.570Z,20.85
2023-05-21T13:05:31.448Z,20.80
2023-05-21T13:07:58.042Z,20.78
2023-05-21T13:10:24.568Z,20.79
2023-05-21T13:12:51.058Z,20.75
2023-05-21T13:15:17.986Z,20.72
2023-05-21T13:17:44.530Z,20.70
2023-05-21T13:20:15.832Z,20.69
2023-05-21T13:22:47.909Z,20.68
2023-05-21T13:25:25.324Z,20.67
2023-05-21T13:27:53.105Z,20.64
2023-05-21T13:30:21.139Z,20.63
2023-05-21T13:32:48.141Z,20.62
2023-05-21T13:35:17.128Z,20.65
2023-05-21T13:37:44.220Z,20.67
2023-05-21T13:40:14.441Z,20.68
2023-05-21T13:42:41.366Z,20.69
2023-05-21T13:45:10.747Z,20.68
2023-05-21T13:47:40.263Z,20.65
2023-05-21T13:50:08.250Z,20.66
2023-05-21T13:52:35.155Z,20.65
2023-05-21T13:55:01.859Z,20.67
2023-05-21T13:57:30.742Z,20.62
2023-05-21T14:00:01.098Z,20.60
2023-05-21T14:02:27.805Z,20.59
2023-05-21T14:04:54.414Z,20.60
2023-05-21T14:07:22.114Z,20.59
2023-05-21T14:09:48.982Z,20.59
2023-05-21T14:12:15.803Z,20.59
2023-05-21T14:14:42.490Z,20.58
2023-05-21T14:17:09.066Z,20.56
2023-05-21T14:19:35.826Z,20.56
2023-05-21T14:22:02.410Z,20.54
2023-05-21T14:24:28.940Z,20.54
2023-05-21T14:26:55.482Z,20.53
2023-05-21T14:29:21.982Z,20.54
2023-05-21T14:31:48.720Z,20.52
2023-05-21T14:34:15.383Z,20.52
2023-05-21T14:36:41.929Z,20.53
2023-05-21T14:39:08.428Z,20.53
2023-05-21T14:41:38.957Z,20.52
2023-05-21T14:44:05.547Z,20.52
2023-05-21T14:46:32.548Z,20.52
2023-05-21T14:49:00.215Z,20.52
2023-05-21T14:51:26.710Z,20.51
2023-05-21T14:53:53.214Z,20.51
2023-05-21T14:56:22.186Z,20.51
2023-05-21T14:58:48.847Z,20.51
2023-05-21T15:01:15.546Z,20.51
2023-05-21T15:03:42.165Z,20.50
2023-05-21T15:06:08.865Z,20.50
2023-05-21T15:08:35.648Z,20.50
2023-05-21T15:11:02.192Z,20.49
2023-05-21T15:13:28.649Z,20.50
2023-05-21T15:15:55.224Z,20.49
2023-05-21T15:18:21.811Z,20.60
2023-05-21T15:20:48.282Z,20.70
2023-05-21T15:23:17.394Z,20.70
2023-05-21T15:25:45.160Z,20.72
2023-05-21T15:28:12.249Z,20.80
2023-05-21T15:30:39.309Z,20.85
2023-05-21T15:33:06.493Z,20.93
2023-05-21T15:35:33.329Z,21.04
2023-05-21T15:38:00.074Z,21.14
2023-05-21T15:40:27.324Z,21.26
2023-05-21T15:42:54.291Z,21.43
2023-05-21T15:45:21.164Z,21.52
2023-05-21T15:47:48.074Z,21.58
2023-05-21T15:50:14.692Z,21.56
2023-05-21T15:52:42.144Z,21.58
2023-05-21T15:55:09.304Z,21.59
2023-05-21T15:57:35.793Z,21.58
2023-05-21T16:00:02.273Z,21.55
2023-05-21T16:02:28.962Z,21.54
2023-05-21T16:04:55.611Z,21.50
2023-05-21T16:07:23.537Z,21.45
2023-05-21T16:09:50.081Z,21.41
2023-05-21T16:12:16.704Z,21.38
2023-05-21T16:14:43.337Z,21.33
2023-05-21T16:17:09.897Z,21.30
2023-05-21T16:19:36.535Z,21.26
2023-05-21T16:22:03.174Z,21.25
2023-05-21T16:24:29.787Z,21.27
2023-05-21T16:26:56.417Z,21.32
2023-05-21T16:29:22.908Z,21.26
2023-05-21T16:31:49.492Z,21.20
2023-05-21T16:34:16.039Z,21.18
2023-05-21T16:36:42.636Z,21.18
2023-05-21T16:39:09.152Z,21.22
2023-05-21T16:41:35.942Z,21.22
2023-05-21T16:44:02.476Z,21.19
2023-05-21T16:48:55.426Z,21.08
2023-05-21T16:51:22.564Z,21.09
2023-05-21T16:53:49.052Z,21.07
2023-05-21T16:56:15.601Z,21.09
2023-05-21T16:58:42.141Z,21.11
2023-05-21T17:01:08.657Z,21.08
2023-05-21T17:03:35.461Z,21.04
2023-05-21T17:06:02.004Z,21.00
2023-05-21T17:08:28.571Z,21.02
2023-05-21T17:10:55.483Z,21.19
2023-05-21T17:13:23.048Z,21.22
2023-05-21T17:15:51.115Z,21.16
2023-05-21T17:18:17.964Z,21.10
2023-05-21T17:20:44.606Z,21.05
2023-05-21T17:23:11.880Z,21.02
2023-05-21T17:25:39.056Z,21.00
2023-05-21T17:28:06.135Z,20.98
2023-05-21T17:30:32.688Z,20.98
2023-05-21T17:32:59.535Z,20.96
2023-05-21T17:35:26.029Z,20.97
2023-05-21T17:37:53.545Z,20.95
2023-05-21T17:40:21.381Z,20.96
2023-05-21T17:42:48.022Z,20.95
2023-05-21T17:45:14.517Z,20.94
2023-05-21T17:47:41.033Z,20.93
2023-05-21T17:50:08.362Z,20.94
2023-05-21T17:52:34.842Z,20.94
2023-05-21T17:55:01.884Z,20.93
2023-05-21T17:57:28.786Z,20.92
2023-05-21T17:59:55.614Z,20.91
2023-05-21T18:02:23.586Z,20.91
2023-05-21T18:04:50.083Z,20.89
2023-05-21T18:07:16.684Z,20.89
2023-05-21T18:09:43.183Z,20.91
2023-05-21T18:12:09.737Z,20.91
2023-05-21T18:14:36.262Z,20.91
2023-05-21T18:17:02.842Z,20.91
2023-05-21T18:19:30.536Z,20.92
2023-05-21T18:21:57.192Z,20.91
2023-05-21T18:24:23.872Z,20.90
2023-05-21T18:26:52.792Z,20.92
2023-05-21T18:29:19.229Z,20.93
2023-05-21T18:31:45.829Z,20.91
2023-05-21T18:34:12.604Z,20.92
2023-05-21T18:36:40.053Z,20.89
2023-05-21T18:39:09.911Z,20.89
2023-05-21T18:41:37.402Z,20.87
2023-05-21T18:44:05.863Z,20.87
2023-05-21T18:46:32.397Z,20.87
2023-05-21T18:48:59.934Z,20.87
2023-05-21T18:51:26.522Z,20.89
2023-05-21T18:53:53.060Z,20.89
2023-05-21T18:56:19.571Z,20.87
2023-05-21T18:58:48.849Z,20.88
2023-05-21T19:01:15.783Z,20.89
2023-05-21T19:03:42.342Z,20.88
2023-05-21T19:06:09.099Z,20.88
2023-05-21T19:08:35.612Z,20.88
2023-05-21T19:11:02.136Z,20.87
2023-05-21T19:13:28.874Z,20.89
2023-05-21T19:15:57.287Z,20.87
2023-05-21T19:18:30.091Z,20.87
2023-05-21T19:20:56.826Z,20.86
2023-05-21T19:23:24.614Z,20.86
2023-05-21T19:25:51.419Z,20.85
2023-05-21T19:28:18.751Z,20.84
2023-05-21T19:30:45.377Z,20.84
2023-05-21T19:33:12.097Z,20.83
2023-05-21T19:35:38.762Z,20.82
2023-05-21T19:38:05.692Z,20.81
2023-05-21T19:40:33.510Z,20.81
2023-05-21T19:43:00.001Z,20.80
2023-05-21T19:45:26.492Z,20.80
2023-05-21T19:47:52.952Z,20.79
2023-05-21T19:50:19.469Z,20.77
2023-05-21T19:52:45.898Z,20.77
2023-05-21T19:55:13.971Z,20.76
2023-05-21T19:57:40.535Z,20.76
2023-05-21T20:00:10.292Z,20.75
2023-05-21T20:02:36.810Z,20.73
2023-05-21T20:05:03.417Z,20.72
2023-05-21T20:07:29.963Z,20.73
2023-05-21T20:09:56.465Z,20.70
2023-05-21T20:12:22.999Z,20.70
2023-05-21T20:14:49.917Z,20.70
2023-05-21T20:17:18.846Z,20.70
2023-05-21T20:19:48.735Z,20.69
2023-05-21T20:22:15.973Z,20.70
2023-05-21T20:24:43.468Z,20.70
2023-05-21T20:27:10.178Z,20.69
2023-05-21T20:29:36.680Z,20.69
2023-05-21T20:32:03.202Z,20.69
2023-05-21T20:34:29.836Z,20.69
2023-05-21T20:36:58.260Z,20.69
2023-05-21T20:39:27.293Z,20.68
2023-05-21T20:41:55.091Z,20.66
2023-05-21T20:44:22.415Z,20.68
2023-05-21T20:46:49.215Z,20.67
2023-05-21T20:49:17.765Z,20.67
2023-05-21T20:51:44.493Z,20.66
2023-05-21T20:54:11.396Z,20.67
2023-05-21T20:56:42.597Z,20.66
2023-05-21T20:59:11.202Z,20.66
2023-05-21T21:01:38.580Z,20.65
2023-05-21T21:04:05.411Z,20.64
2023-05-21T21:06:32.036Z,20.65
2023-05-21T21:08:58.637Z,20.64
2023-05-21T21:11:25.206Z,20.63
2023-05-21T21:13:51.990Z,20.63
2023-05-21T21:16:18.662Z,20.62
2023-05-21T21:18:47.020Z,20.62
2023-05-21T21:21:13.762Z,20.60
2023-05-21T21:23:40.297Z,20.61
2023-05-21T21:26:07.328Z,20.61
2023-05-21T21:28:33.994Z,20.60
2023-05-21T21:31:00.675Z,20.59
2023-05-21T21:33:28.451Z,20.58
2023-05-21T21:35:55.224Z,20.57
2023-05-21T21:38:22.007Z,20.58
2023-05-21T21:40:48.646Z,20.56
2023-05-21T21:43:15.311Z,20.56
2023-05-21T21:45:41.949Z,20.57
2023-05-21T21:48:08.555Z,20.57
2023-05-21T21:50:35.058Z,20.56
2023-05-21T21:53:03.549Z,20.54
2023-05-21T21:55:30.125Z,20.54
2023-05-21T21:57:56.664Z,20.53
2023-05-21T22:00:26.679Z,20.52
2023-05-21T22:02:53.943Z,20.53
2023-05-21T22:05:20.970Z,20.52
2023-05-21T22:07:48.095Z,20.51
2023-05-21T22:10:17.671Z,20.52
2023-05-21T22:12:44.972Z,20.53
2023-05-21T22:15:24.489Z,20.52
2023-05-21T22:17:51.933Z,20.52
2023-05-21T22:20:18.653Z,20.51
2023-05-21T22:22:46.211Z,20.52
2023-05-21T22:25:12.925Z,20.50
2023-05-21T22:27:40.466Z,20.50
2023-05-21T22:30:07.574Z,20.50
2023-05-21T22:32:34.138Z,20.50
2023-05-21T22:35:00.767Z,20.49
2023-05-21T22:37:27.995Z,20.50
2023-05-21T22:39:54.487Z,20.50
2023-05-21T22:42:21.251Z,20.49
2023-05-21T22:44:48.043Z,20.48
2023-05-21T22:47:14.751Z,20.47
2023-05-21T22:49:41.271Z,20.48
2023-05-21T22:52:09.405Z,20.48
2023-05-21T22:54:36.191Z,20.49
2023-05-21T22:57:03.041Z,20.47
2023-05-21T22:59:29.956Z,20.46
2023-05-21T23:01:56.503Z,20.45
2023-05-21T23:04:35.685Z,20.44
2023-05-21T23:07:06.617Z,20.48
2023-05-21T23:09:33.140Z,20.47
2023-05-21T23:11:59.717Z,20.45
2023-05-21T23:14:26.346Z,20.47
2023-05-21T23:16:53.937Z,20.47
2023-05-21T23:19:21.296Z,20.46
2023-05-21T23:21:47.969Z,20.48
2023-05-21T23:24:14.564Z,20.48
2023-05-21T23:26:41.027Z,20.46
2023-05-21T23:29:07.537Z,20.47
2023-05-21T23:31:34.064Z,20.47
2023-05-21T23:34:02.761Z,20.47
2023-05-21T23:36:29.242Z,20.41
2023-05-21T23:38:55.760Z,20.40
2023-05-21T23:41:23.083Z,20.39
2023-05-21T23:43:50.395Z,20.39
2023-05-21T23:46:17.080Z,20.40
2023-05-21T23:48:43.663Z,20.41
2023-05-21T23:51:10.174Z,20.44
2023-05-21T23:53:36.738Z,20.44
2023-05-21T23:56:03.330Z,20.44
2023-05-21T23:58:29.806Z,20.43
